Time;durP1;ratioP1;P1;durP2;ratioP2;P2;SDS_P1;SDS_P2;PMS_P1;PMS_P2;Temp;Humidity;BMP_temperature;BMP_pressure;BME280_temperature;BME280_humidity;BME280_pressure;Samples;Min_cycle;Max_cycle;Signal;HPM_P1;HPM_P2
2022/04/15 00:01:40;;;;;;;14.70;9.25;;;5.90;99.90;;;;;;5053590;28;20440;-67
2022/04/15 00:04:05;;;;;;;12.07;8.40;;;5.90;99.90;;;;;;5052321;28;20048;-68
2022/04/15 00:06:34;;;;;;;11.35;8.40;;;5.80;99.90;;;;;;5053568;28;20115;-67
2022/04/15 00:09:01;;;;;;;21.58;8.82;;;5.90;99.90;;;;;;5053543;28;20040;-68
2022/04/15 00:11:29;;;;;;;18.67;8.23;;;5.80;99.90;;;;;;5052416;28;20123;-67
2022/04/15 00:13:55;;;;;;;9.48;6.53;;;5.80;99.90;;;;;;5064354;28;20051;-68
2022/04/15 00:16:21;;;;;;;12.45;6.97;;;5.70;99.90;;;;;;5070258;28;20576;-67
2022/04/15 00:18:47;;;;;;;9.70;5.70;;;5.60;99.90;;;;;;5072151;28;20040;-67
2022/04/15 00:21:13;;;;;;;10.93;6.10;;;5.60;99.90;;;;;;5073354;28;20078;-67
2022/04/15 00:23:39;;;;;;;10.63;6.95;;;5.50;99.90;;;;;;5055087;28;20103;-68
2022/04/15 00:26:04;;;;;;;11.93;6.63;;;5.50;99.90;;;;;;5073312;28;20055;-68
2022/04/15 00:28:31;;;;;;;11.00;7.45;;;5.50;99.90;;;;;;5073250;28;20497;-68
2022/04/15 00:30:57;;;;;;;12.75;5.97;;;5.50;99.90;;;;;;5072131;28;20113;-67
2022/04/15 00:33:23;;;;;;;8.48;4.90;;;5.50;99.90;;;;;;5073025;28;20040;-67
2022/04/15 00:35:49;;;;;;;12.90;7.85;;;5.60;99.90;;;;;;5071770;28;20036;-67
2022/04/15 00:38:14;;;;;;;10.63;5.78;;;5.50;99.90;;;;;;5071680;28;20097;-67
2022/04/15 00:40:40;;;;;;;17.42;8.48;;;5.60;99.90;;;;;;5055076;28;20048;-67
2022/04/15 00:43:06;;;;;;;417.45;30.38;;;5.50;99.90;;;;;;5072893;28;20044;-68
2022/04/15 00:45:32;;;;;;;367.92;26.13;;;5.50;99.90;;;;;;5071804;28;20055;-67
2022/04/15 00:48:00;;;;;;;89.82;13.90;;;5.40;99.90;;;;;;5070555;28;20037;-67
2022/04/15 00:50:28;;;;;;;9.35;5.55;;;5.30;99.90;;;;;;5055276;28;20086;-68
2022/04/15 00:52:58;;;;;;;10.23;5.47;;;5.20;99.90;;;;;;5072859;28;20066;-68
2022/04/15 00:55:25;;;;;;;8.00;4.20;;;5.10;99.90;;;;;;5072916;28;20385;-67
2022/04/15 00:57:59;;;;;;;8.23;4.47;;;5.10;99.90;;;;;;5071673;28;20055;-67
2022/04/15 01:00:27;;;;;;;10.10;4.18;;;5.00;99.90;;;;;;5071692;28;20580;-67
2022/04/15 01:02:53;;;;;;;12.38;5.75;;;5.00;99.90;;;;;;5072780;28;20431;-68
2022/04/15 01:05:19;;;;;;;18.45;4.80;;;4.90;99.90;;;;;;5072899;28;20041;-67
2022/04/15 01:07:55;;;;;;;8.35;5.05;;;4.90;99.90;;;;;;5071265;28;20408;-67
2022/04/15 01:10:22;;;;;;;11.95;5.90;;;4.80;99.90;;;;;;5071765;28;20079;-67
2022/04/15 01:12:54;;;;;;;38.53;9.50;;;4.70;99.90;;;;;;5053139;28;20044;-67
2022/04/15 01:15:22;;;;;;;30.52;9.65;;;4.60;99.90;;;;;;5051714;28;20040;-67
2022/04/15 01:17:48;;;;;;;42.15;10.18;;;4.50;99.90;;;;;;5049080;28;20076;-67
2022/04/15 01:20:15;;;;;;;25.95;6.05;;;4.50;99.90;;;;;;5035056;28;20045;-67
2022/04/15 01:22:41;;;;;;;11.10;6.97;;;4.40;99.90;;;;;;5051245;28;20057;-67
2022/04/15 01:25:09;;;;;;;9.07;5.65;;;4.30;99.90;;;;;;5052613;28;20106;-67
2022/04/15 01:27:37;;;;;;;185.65;22.80;;;4.30;99.90;;;;;;5051174;28;20405;-67
2022/04/15 01:30:05;;;;;;;189.77;23.73;;;4.30;99.90;;;;;;5051190;28;20486;-67
2022/04/15 01:32:31;;;;;;;11.52;7.32;;;4.30;99.90;;;;;;5051212;28;20041;-67
2022/04/15 01:34:57;;;;;;;168.07;20.88;;;4.30;99.90;;;;;;5051330;28;20049;-67
2022/04/15 01:37:23;;;;;;;11.32;7.28;;;4.20;99.90;;;;;;5051487;28;20381;-67
2022/04/15 01:39:50;;;;;;;39.33;13.20;;;4.20;99.90;;;;;;5052587;28;20615;-67
2022/04/15 01:42:17;;;;;;;127.35;22.90;;;4.10;99.90;;;;;;5052303;28;20076;-67
2022/04/15 01:44:43;;;;;;;8.63;6.63;;;4.10;99.90;;;;;;5052534;28;20040;-68
2022/04/15 01:47:10;;;;;;;10.75;6.70;;;4.10;99.90;;;;;;5049070;28;20452;-67
2022/04/15 01:49:37;;;;;;;20.83;10.57;;;4.10;99.90;;;;;;5051066;28;20384;-67
2022/04/15 01:52:04;;;;;;;32.80;11.93;;;4.10;99.90;;;;;;5051025;28;20052;-67
2022/04/15 01:54:30;;;;;;;19.70;9.65;;;4.10;99.90;;;;;;5050969;28;20037;-67
2022/04/15 01:56:56;;;;;;;12.30;8.15;;;4.10;99.90;;;;;;5051944;28;20040;-67
2022/04/15 01:59:23;;;;;;;24.15;11.05;;;4.10;99.90;;;;;;5034569;28;20370;-67
2022/04/15 02:01:49;;;;;;;21.45;10.23;;;4.10;99.90;;;;;;5052309;28;20072;-67
2022/04/15 02:04:15;;;;;;;18.75;11.23;;;4.10;99.90;;;;;;5052366;28;20094;-67
2022/04/15 02:06:41;;;;;;;20.20;10.77;;;4.10;99.90;;;;;;5050980;28;20481;-67
2022/04/15 02:09:07;;;;;;;16.33;9.38;;;4.10;99.90;;;;;;5051964;28;20045;-68
2022/04/15 02:11:34;;;;;;;14.80;10.13;;;4.10;99.90;;;;;;5051131;28;20095;-67
2022/04/15 02:14:00;;;;;;;20.15;10.90;;;4.10;99.90;;;;;;5065689;28;20505;-67
2022/04/15 02:16:25;;;;;;;21.15;11.57;;;4.10;99.90;;;;;;5072414;28;20041;-67
2022/04/15 02:18:51;;;;;;;21.05;11.18;;;4.10;99.90;;;;;;5074604;28;20501;-67
2022/04/15 02:21:17;;;;;;;15.27;10.35;;;4.20;99.90;;;;;;5058019;28;20059;-67
2022/04/15 02:23:43;;;;;;;19.73;11.57;;;4.30;99.90;;;;;;5074143;28;20079;-68
2022/04/15 02:26:09;;;;;;;17.67;10.25;;;4.30;99.90;;;;;;5075154;28;20044;-68
2022/04/15 02:28:35;;;;;;;21.55;11.13;;;4.40;99.90;;;;;;5075354;28;20430;-67
2022/04/15 02:31:00;;;;;;;17.48;11.20;;;4.50;99.90;;;;;;5074202;28;20115;-67
2022/04/15 02:33:26;;;;;;;20.20;12.07;;;4.60;99.90;;;;;;5075558;28;20066;-67
2022/04/15 02:35:52;;;;;;;18.38;12.27;;;4.70;99.90;;;;;;5074166;28;20386;-67
2022/04/15 02:38:18;;;;;;;19.63;12.05;;;4.80;99.90;;;;;;5075520;28;20047;-67
2022/04/15 02:40:44;;;;;;;17.17;11.23;;;4.90;99.90;;;;;;5074030;28;20533;-67
2022/04/15 02:43:11;;;;;;;18.95;12.52;;;5.00;99.90;;;;;;5073921;28;20093;-68
2022/04/15 02:45:37;;;;;;;25.35;13.95;;;5.10;99.90;;;;;;5075221;28;20044;-67
2022/04/15 02:48:03;;;;;;;23.27;13.90;;;5.20;99.90;;;;;;5055125;28;20157;-68
2022/04/15 02:50:29;;;;;;;16.23;11.75;;;5.30;99.90;;;;;;5075353;28;20041;-67
2022/04/15 02:52:55;;;;;;;23.95;14.23;;;5.40;99.90;;;;;;5073653;28;20052;-67
2022/04/15 02:55:21;;;;;;;20.27;13.05;;;5.50;99.90;;;;;;5075094;28;20043;-68
2022/04/15 02:57:47;;;;;;;20.50;13.07;;;5.60;99.90;;;;;;5075130;28;20359;-68
2022/04/15 03:00:14;;;;;;;20.33;13.80;;;5.70;99.90;;;;;;5073619;28;20044;-67
2022/04/15 03:02:40;;;;;;;23.65;15.82;;;5.80;99.90;;;;;;5070919;28;20040;-68
2022/04/15 03:05:09;;;;;;;30.73;16.02;;;5.90;99.90;;;;;;5070611;28;20045;-68
2022/04/15 03:07:35;;;;;;;22.50;14.25;;;6.00;99.90;;;;;;5074973;28;20056;-68
2022/04/15 03:10:01;;;;;;;23.23;14.20;;;6.10;99.90;;;;;;5073359;28;20041;-68
2022/04/15 03:12:27;;;;;;;25.10;15.10;;;6.20;99.90;;;;;;5073743;28;20055;-67
2022/04/15 03:14:53;;;;;;;24.20;14.07;;;6.30;99.90;;;;;;5055767;28;20037;-67
2022/04/15 03:17:19;;;;;;;22.05;13.68;;;6.30;99.90;;;;;;5051401;28;20045;-67
2022/04/15 03:19:45;;;;;;;22.15;12.07;;;6.40;99.90;;;;;;5054680;28;20116;-68
2022/04/15 03:22:11;;;;;;;22.08;13.13;;;6.50;99.90;;;;;;5053093;28;20541;-67
2022/04/15 03:24:37;;;;;;;21.30;13.65;;;6.50;99.90;;;;;;5052165;28;20048;-68
2022/04/15 03:27:03;;;;;;;24.17;13.45;;;6.60;99.90;;;;;;5053276;28;20102;-67
2022/04/15 03:29:28;;;;;;;16.75;11.93;;;6.60;99.90;;;;;;5052842;28;20048;-67
2022/04/15 03:31:54;;;;;;;17.52;12.82;;;6.70;99.90;;;;;;5053096;28;20036;-67
2022/04/15 03:34:20;;;;;;;22.55;13.85;;;6.70;99.90;;;;;;5054508;28;20029;-67
2022/04/15 03:36:46;;;;;;;15.45;10.85;;;6.80;99.90;;;;;;5053329;28;20339;-68
2022/04/15 03:39:12;;;;;;;17.35;11.73;;;6.80;99.90;;;;;;5054200;28;20080;-68
2022/04/15 03:41:38;;;;;;;18.10;11.20;;;6.80;99.90;;;;;;5054196;28;20593;-68
2022/04/15 03:44:04;;;;;;;23.15;12.60;;;6.90;99.90;;;;;;5052615;28;20107;-67
2022/04/15 03:46:30;;;;;;;16.52;10.45;;;6.90;99.90;;;;;;5051491;28;20511;-68
2022/04/15 03:48:56;;;;;;;15.95;10.93;;;7.00;99.90;;;;;;5052770;28;20347;-67
2022/04/15 03:51:22;;;;;;;16.55;9.70;;;7.00;99.90;;;;;;5052941;28;20041;-67
2022/04/15 03:53:48;;;;;;;16.20;9.43;;;7.10;99.90;;;;;;5053755;28;20037;-67
2022/04/15 03:56:13;;;;;;;16.45;9.25;;;7.20;99.90;;;;;;5052602;28;20037;-67
2022/04/15 03:58:39;;;;;;;14.98;8.93;;;7.30;99.90;;;;;;5052643;28;20103;-68
2022/04/15 04:01:05;;;;;;;12.68;8.68;;;7.30;99.90;;;;;;5052719;28;20056;-67
2022/04/15 04:03:31;;;;;;;17.10;9.85;;;7.40;99.90;;;;;;5053990;28;20071;-67
2022/04/15 04:05:57;;;;;;;16.02;8.93;;;7.50;99.90;;;;;;5052354;28;20493;-67
2022/04/15 04:08:22;;;;;;;13.85;9.52;;;7.50;99.90;;;;;;5052327;28;20147;-68
2022/04/15 04:10:48;;;;;;;15.70;9.55;;;7.50;99.90;;;;;;5052381;28;20090;-68
2022/04/15 04:13:14;;;;;;;11.48;7.78;;;7.60;99.90;;;;;;5058565;28;20032;-68
2022/04/15 04:15:40;;;;;;;16.15;8.93;;;7.60;99.90;;;;;;5072171;28;20076;-67
2022/04/15 04:18:05;;;;;;;15.05;9.10;;;7.60;99.90;;;;;;5070202;28;20044;-67
2022/04/15 04:20:32;;;;;;;16.63;9.43;;;7.60;99.90;;;;;;5073298;28;20075;-68
2022/04/15 04:22:58;;;;;;;12.07;8.70;;;7.60;99.90;;;;;;5073352;28;20397;-68
2022/04/15 04:25:24;;;;;;;10.68;7.85;;;7.60;99.90;;;;;;5072052;28;20048;-68
2022/04/15 04:27:50;;;;;;;13.45;9.48;;;7.70;99.90;;;;;;5072066;28;20043;-68
2022/04/15 04:30:16;;;;;;;15.80;9.55;;;7.80;99.90;;;;;;5071884;28;20036;-68
2022/04/15 04:32:49;;;;;;;11.57;8.30;;;7.80;99.90;;;;;;5072254;28;20122;-67
2022/04/15 04:35:17;;;;;;;11.88;8.63;;;7.80;99.90;;;;;;5071772;28;20044;-67
2022/04/15 04:37:44;;;;;;;15.07;9.73;;;7.80;99.90;;;;;;5071942;28;20037;-68
2022/04/15 04:40:11;;;;;;;13.07;8.30;;;7.90;99.90;;;;;;5071767;28;20052;-68
2022/04/15 04:42:38;;;;;;;12.75;7.85;;;7.90;99.90;;;;;;5069025;28;20127;-67
2022/04/15 04:45:05;;;;;;;11.02;8.38;;;7.90;99.90;;;;;;5073192;28;20044;-68
2022/04/15 04:47:31;;;;;;;12.07;8.27;;;7.90;99.90;;;;;;5069761;28;20120;-67
2022/04/15 04:49:57;;;;;;;12.80;7.65;;;7.90;99.90;;;;;;5071795;28;20128;-67
2022/04/15 04:52:23;;;;;;;13.60;7.57;;;7.90;99.90;;;;;;5073028;28;20497;-67
2022/04/15 04:54:50;;;;;;;11.23;7.03;;;7.90;99.90;;;;;;5072758;28;20037;-67
2022/04/15 04:57:16;;;;;;;11.05;7.10;;;7.90;99.90;;;;;;5072797;28;20219;-67
2022/04/15 04:59:42;;;;;;;12.25;7.13;;;8.00;99.90;;;;;;5072940;28;20063;-68
2022/04/15 05:02:10;;;;;;;9.55;6.95;;;8.00;99.90;;;;;;5071781;28;20485;-67
2022/04/15 05:04:40;;;;;;;13.48;8.52;;;8.00;99.90;;;;;;5071423;28;20044;-67
2022/04/15 05:07:06;;;;;;;14.57;7.80;;;8.00;99.90;;;;;;5071463;28;20131;-67
2022/04/15 05:09:32;;;;;;;14.48;8.60;;;8.00;99.90;;;;;;5071288;28;20131;-67
2022/04/15 05:11:58;;;;;;;12.70;8.35;;;8.00;99.90;;;;;;5071428;28;20127;-67
2022/04/15 05:14:24;;;;;;;12.05;7.80;;;8.00;99.90;;;;;;5058162;28;20038;-68
2022/04/15 05:16:50;;;;;;;14.63;8.02;;;8.10;99.90;;;;;;5050597;28;20102;-68
2022/04/15 05:19:15;;;;;;;14.63;7.95;;;8.10;99.90;;;;;;5052716;28;20048;-68
2022/04/15 05:21:41;;;;;;;15.23;8.90;;;8.10;99.90;;;;;;5051076;28;20120;-68
2022/04/15 05:24:08;;;;;;;13.57;8.52;;;8.10;99.90;;;;;;5034655;28;20059;-67
2022/04/15 05:26:36;;;;;;;14.48;8.73;;;8.10;99.90;;;;;;5051272;28;20481;-67
2022/04/15 05:29:02;;;;;;;11.23;7.85;;;8.10;99.90;;;;;;5051211;28;20048;-67
2022/04/15 05:31:28;;;;;;;15.70;9.30;;;8.10;99.90;;;;;;5052417;28;20060;-67
2022/04/15 05:33:54;;;;;;;12.65;8.88;;;8.20;99.90;;;;;;5051298;28;20052;-68
2022/04/15 05:36:20;;;;;;;14.43;9.48;;;8.20;99.90;;;;;;5034589;28;20555;-68
2022/04/15 05:38:46;;;;;;;17.00;9.82;;;8.20;99.90;;;;;;5051440;28;20087;-67
2022/04/15 05:41:12;;;;;;;16.08;10.60;;;8.20;99.90;;;;;;5051442;28;20048;-68
2022/04/15 05:43:38;;;;;;;16.90;10.15;;;8.20;99.90;;;;;;5052527;28;20111;-67
2022/04/15 05:46:04;;;;;;;14.13;9.57;;;8.20;99.90;;;;;;5051416;28;20044;-67
2022/04/15 05:48:29;;;;;;;11.35;9.02;;;8.20;99.90;;;;;;5053126;28;20075;-67
2022/04/15 05:50:55;;;;;;;15.18;10.57;;;8.10;99.90;;;;;;5056296;28;20478;-68
2022/04/15 05:53:21;;;;;;;14.85;9.43;;;8.10;99.90;;;;;;5038357;28;20462;-67
2022/04/15 05:55:47;;;;;;;13.15;9.60;;;8.00;99.90;;;;;;5055166;28;20041;-68
2022/04/15 05:58:13;;;;;;;13.98;9.77;;;8.00;99.90;;;;;;5055204;28;20037;-67
2022/04/15 06:00:38;;;;;;;13.20;10.30;;;8.00;99.90;;;;;;5054956;28;20041;-68
2022/04/15 06:03:07;;;;;;;11.55;9.18;;;8.00;99.90;;;;;;5054858;28;20045;-67
2022/04/15 06:05:33;;;;;;;11.45;9.30;;;8.00;99.90;;;;;;5054678;28;20045;-67
2022/04/15 06:07:59;;;;;;;15.80;9.95;;;8.00;99.90;;;;;;5054945;28;20094;-67
2022/04/15 06:10:24;;;;;;;14.70;9.70;;;8.10;99.90;;;;;;5054531;28;20044;-67
2022/04/15 06:15:41;;;;;;;12.48;9.10;;;8.10;99.90;;;;;;5076065;28;20048;-68
2022/04/15 06:18:07;;;;;;;10.80;8.93;;;8.20;99.90;;;;;;5073464;28;20044;-67
2022/04/15 06:20:34;;;;;;;12.85;9.50;;;8.20;99.90;;;;;;5057940;28;20040;-67
2022/04/15 06:23:00;;;;;;;14.55;9.15;;;8.20;99.90;;;;;;5075610;28;20105;-68
2022/04/15 06:25:26;;;;;;;12.93;9.05;;;8.30;99.90;;;;;;5075498;28;20073;-68
2022/04/15 06:27:54;;;;;;;12.80;8.50;;;8.40;99.90;;;;;;5074711;28;20033;-68
2022/04/15 06:30:21;;;;;;;12.57;9.23;;;8.40;99.90;;;;;;5074172;28;20041;-68
2022/04/15 06:32:47;;;;;;;13.15;9.30;;;8.50;99.90;;;;;;5075486;28;20036;-68
2022/04/15 06:35:14;;;;;;;10.63;7.95;;;8.50;99.90;;;;;;5074372;28;20048;-67
2022/04/15 06:37:39;;;;;;;12.00;7.80;;;8.50;99.90;;;;;;5074178;28;20037;-68
2022/04/15 06:40:06;;;;;;;11.60;8.15;;;8.60;99.90;;;;;;5074346;28;20044;-68
2022/04/15 06:42:31;;;;;;;11.70;8.23;;;8.60;99.90;;;;;;5074030;28;20496;-68
2022/04/15 06:44:59;;;;;;;8.52;6.68;;;8.60;99.90;;;;;;5075524;28;20047;-68
2022/04/15 06:47:25;;;;;;;7.22;6.50;;;8.70;99.90;;;;;;5055246;28;20048;-68
2022/04/15 06:49:51;;;;;;;7.53;5.82;;;8.70;99.90;;;;;;5073887;28;20072;-68
2022/04/15 06:52:19;;;;;;;5.65;4.80;;;8.70;99.90;;;;;;5075287;28;20515;-66
2022/04/15 06:54:45;;;;;;;7.00;4.30;;;8.60;99.90;;;;;;5057381;28;20581;-66
2022/04/15 06:57:11;;;;;;;8.15;5.68;;;8.60;99.90;;;;;;5073998;28;20139;-66
2022/04/15 06:59:38;;;;;;;5.18;4.50;;;8.60;99.90;;;;;;5073455;28;20055;-66
2022/04/15 07:02:05;;;;;;;6.10;3.67;;;8.60;99.90;;;;;;5073674;28;20044;-68
2022/04/15 07:04:32;;;;;;;4.65;3.40;;;8.60;99.90;;;;;;5057157;28;20041;-69
2022/04/15 07:06:58;;;;;;;5.07;3.65;;;8.60;99.90;;;;;;5074828;28;20552;-68
2022/04/15 07:09:24;;;;;;;4.63;2.95;;;8.60;99.90;;;;;;5056979;28;20063;-69
2022/04/15 07:11:50;;;;;;;3.85;3.03;;;8.60;99.90;;;;;;5075029;28;20058;-68
2022/04/15 07:14:17;;;;;;;3.83;3.17;;;8.60;99.90;;;;;;5059820;28;20442;-68
2022/04/15 07:16:43;;;;;;;5.43;3.38;;;8.60;99.90;;;;;;5051267;28;20028;-69
2022/04/15 07:19:09;;;;;;;5.97;3.92;;;8.60;99.90;;;;;;5054558;28;20037;-68
2022/04/15 07:21:35;;;;;;;17.30;4.80;;;8.60;99.90;;;;;;5053092;28;20519;-69
2022/04/15 07:24:02;;;;;;;5.38;3.92;;;8.50;99.90;;;;;;5036767;28;20041;-69
2022/04/15 07:26:28;;;;;;;6.55;4.00;;;8.60;99.90;;;;;;5054587;28;20134;-68
2022/04/15 07:28:54;;;;;;;4.75;3.60;;;8.50;99.90;;;;;;5053272;28;20052;-68
2022/04/15 07:31:20;;;;;;;5.40;3.80;;;8.60;99.90;;;;;;5036473;28;20474;-69
2022/04/15 07:33:46;;;;;;;5.90;3.33;;;8.60;99.90;;;;;;5054349;28;20045;-68
2022/04/15 07:36:59;;;;;;;10.05;5.72;;;8.60;99.90;;;;;;5036764;28;20460;-69
2022/04/15 07:39:00;;;;;;;5.00;4.20;;;8.60;99.90;;;;;;5055475;28;20106;-69
2022/04/15 07:41:26;;;;;;;4.30;3.45;;;8.60;99.90;;;;;;5074060;28;20032;-69
2022/04/15 07:43:53;;;;;;;10.00;3.63;;;8.60;99.90;;;;;;5056394;28;20649;-69
2022/04/15 07:46:19;;;;;;;5.00;3.88;;;8.50;99.90;;;;;;5073522;28;20049;-69
2022/04/15 07:48:45;;;;;;;9.18;4.82;;;8.50;99.90;;;;;;5071500;28;20048;-68
2022/04/15 07:51:11;;;;;;;5.53;3.90;;;8.50;99.90;;;;;;5072992;28;20444;-68
2022/04/15 07:53:37;;;;;;;6.00;4.00;;;8.50;99.90;;;;;;5072759;28;20051;-68
2022/04/15 07:56:03;;;;;;;4.95;4.00;;;8.40;99.90;;;;;;5073845;28;20558;-69
2022/04/15 07:58:29;;;;;;;7.13;5.07;;;8.40;99.90;;;;;;5055926;28;20090;-69
2022/04/15 08:00:59;;;;;;;8.88;6.20;;;8.40;99.90;;;;;;5068769;28;20041;-68
2022/04/15 08:03:25;;;;;;;6.10;4.88;;;8.40;99.90;;;;;;5049124;28;20040;-68
2022/04/15 08:05:51;;;;;;;6.25;5.63;;;8.40;99.90;;;;;;5056779;28;20047;-68
2022/04/15 08:08:17;;;;;;;7.13;5.93;;;8.50;99.90;;;;;;5061371;28;20037;-68
2022/04/15 08:10:43;;;;;;;12.20;6.97;;;8.50;99.90;;;;;;5059846;28;20486;-68
2022/04/15 08:13:08;;;;;;;9.98;7.15;;;8.50;99.90;;;;;;5058898;28;20086;-68
2022/04/15 08:15:34;;;;;;;12.38;8.88;;;8.50;99.90;;;;;;5071808;28;20504;-68
2022/04/15 08:18:01;;;;;;;10.90;7.68;;;8.60;99.90;;;;;;5071323;28;20032;-68
2022/04/15 08:20:27;;;;;;;11.10;8.50;;;8.70;99.90;;;;;;5072216;28;20052;-69
2022/04/15 08:22:53;;;;;;;10.85;8.60;;;8.70;99.90;;;;;;5055073;28;20048;-69
2022/04/15 08:25:19;;;;;;;11.68;9.00;;;8.80;99.90;;;;;;5072347;28;20580;-69
2022/04/15 08:27:45;;;;;;;13.60;8.68;;;8.90;99.90;;;;;;5069045;28;20082;-69
2022/04/15 08:30:11;;;;;;;11.77;9.10;;;8.90;99.90;;;;;;5072018;28;20048;-69
2022/04/15 08:32:36;;;;;;;14.07;9.10;;;9.00;99.90;;;;;;5073238;28;20070;-68
2022/04/15 08:35:04;;;;;;;14.10;10.10;;;9.10;99.90;;;;;;5072003;28;20545;-69
2022/04/15 08:37:30;;;;;;;16.70;10.30;;;9.20;99.90;;;;;;5056195;28;20390;-68
2022/04/15 08:39:55;;;;;;;15.55;10.60;;;9.30;99.90;;;;;;5051568;28;20041;-69
2022/04/15 08:42:22;;;;;;;17.85;11.18;;;9.50;99.90;;;;;;5051726;28;20408;-67
2022/04/15 08:44:50;;;;;;;15.70;11.30;;;9.80;99.90;;;;;;5051859;28;20501;-68
2022/04/15 08:47:16;;;;;;;13.57;10.15;;;10.00;99.90;;;;;;5049841;28;20040;-69
2022/04/15 08:49:42;;;;;;;13.70;9.48;;;10.20;99.90;;;;;;5054689;28;20068;-69
2022/04/15 08:52:12;;;;;;;13.75;10.35;;;10.40;99.90;;;;;;5071641;28;20071;-69
2022/04/15 08:54:38;;;;;;;16.23;11.27;;;10.50;99.90;;;;;;5071591;28;20097;-69
2022/04/15 08:57:05;;;;;;;14.30;9.85;;;10.50;99.90;;;;;;5052010;28;20064;-69
2022/04/15 08:59:31;;;;;;;11.32;8.90;;;10.50;99.90;;;;;;5072566;28;20579;-70
2022/04/15 09:01:57;;;;;;;13.20;9.52;;;10.50;99.90;;;;;;5071794;28;20123;-68
2022/04/15 09:04:23;;;;;;;15.07;9.13;;;10.50;99.90;;;;;;5073053;28;20040;-70
2022/04/15 09:07:02;;;;;;;14.15;8.55;;;10.50;99.90;;;;;;5072654;28;20120;-68
2022/04/15 09:09:32;;;;;;;12.60;10.23;;;10.50;99.90;;;;;;5071337;28;20105;-68
2022/04/15 09:12:04;;;;;;;13.55;9.07;;;10.50;99.90;;;;;;5073045;28;20054;-68
2022/04/15 09:14:30;;;;;;;14.00;8.98;;;10.50;99.90;;;;;;5057121;28;20470;-69
2022/04/15 09:16:56;;;;;;;13.45;10.05;;;10.40;99.90;;;;;;5032794;28;20037;-68
2022/04/15 09:19:22;;;;;;;14.77;10.25;;;10.40;99.90;;;;;;5034923;28;20528;-68
2022/04/15 09:21:56;;;;;;;12.70;8.93;;;10.40;99.90;;;;;;5064463;28;20481;-68
2022/04/15 09:24:33;;;;;;;14.40;8.88;;;10.50;99.90;;;;;;5075506;28;20091;-69
2022/04/15 09:27:08;;;;;;;11.93;8.93;;;10.60;99.90;;;;;;5075796;28;20040;-68
2022/04/15 09:29:40;;;;;;;15.35;8.65;;;10.60;99.90;;;;;;5058671;28;20079;-68
2022/04/15 09:32:14;;;;;;;13.88;7.72;;;10.70;99.90;;;;;;5075436;28;20046;-69
2022/04/15 09:35:07;;;;;;;12.57;9.50;;;10.70;99.90;;;;;;5076253;28;20036;-68
2022/04/15 09:37:42;;;;;;;17.27;8.80;;;10.60;99.90;;;;;;5075281;28;20070;-69
2022/04/15 09:40:16;;;;;;;13.75;8.48;;;10.60;99.90;;;;;;5058575;28;20520;-68
2022/04/15 09:42:51;;;;;;;11.52;8.13;;;10.70;99.90;;;;;;5075231;28;20046;-69
2022/04/15 09:45:24;;;;;;;14.32;8.50;;;10.70;99.90;;;;;;5075134;28;20573;-68
2022/04/15 09:47:52;;;;;;;9.77;7.57;;;10.70;99.90;;;;;;5072914;28;20044;-70
2022/04/15 09:50:26;;;;;;;10.48;6.65;;;10.80;99.90;;;;;;5075062;28;20527;-68
2022/04/15 09:52:53;;;;;;;8.93;6.68;;;11.00;99.90;;;;;;5074971;28;20083;-68
2022/04/15 09:55:20;;;;;;;8.93;6.03;;;11.10;99.90;;;;;;5075067;28;20055;-69
2022/04/15 09:57:50;;;;;;;8.70;5.75;;;11.30;99.90;;;;;;5075609;28;20466;-69
2022/04/15 10:00:18;;;;;;;9.50;6.72;;;11.40;99.90;;;;;;5075068;28;20045;-69
2022/04/15 10:02:45;;;;;;;9.95;6.65;;;11.50;99.90;;;;;;5058183;28;20512;-68
2022/04/15 10:05:15;;;;;;;9.13;5.95;;;11.70;99.90;;;;;;5058142;28;20045;-70
2022/04/15 10:07:44;;;;;;;7.20;5.30;;;11.90;99.90;;;;;;5057293;28;20056;-69
2022/04/15 10:10:14;;;;;;;10.25;5.80;;;12.00;99.90;;;;;;5055528;28;20045;-69
2022/04/15 10:12:41;;;;;;;8.63;5.28;;;12.20;99.90;;;;;;5065196;28;20040;-71
2022/04/15 10:15:09;;;;;;;6.07;5.03;;;12.50;99.90;;;;;;5074166;28;20067;-69
2022/04/15 10:17:41;;;;;;;7.93;5.57;;;12.70;99.90;;;;;;5069373;28;20036;-69
2022/04/15 10:20:08;;;;;;;8.48;5.65;;;12.80;99.90;;;;;;5074405;28;20128;-69
2022/04/15 10:22:39;;;;;;;8.45;4.90;;;12.80;99.90;;;;;;5074473;28;20092;-69
2022/04/15 10:25:06;;;;;;;11.35;5.80;;;12.80;99.90;;;;;;5075591;28;20052;-69
2022/04/15 10:27:33;;;;;;;7.63;5.28;;;12.90;99.90;;;;;;5075644;28;20489;-69
2022/04/15 10:30:12;;;;;;;7.70;4.88;;;13.10;99.90;;;;;;5076115;28;20036;-69
2022/04/15 10:32:52;;;;;;;7.90;5.07;;;13.00;99.90;;;;;;5074823;28;20041;-70
2022/04/15 10:35:36;;;;;;;7.10;4.82;;;13.00;99.90;;;;;;5075377;28;20041;-69
2022/04/15 10:38:10;;;;;;;8.25;4.90;;;13.00;99.90;;;;;;5074224;28;20059;-68
2022/04/15 10:40:41;;;;;;;7.53;4.28;;;13.10;99.90;;;;;;5044071;28;20068;-69
2022/04/15 10:43:23;;;;;;;9.52;5.47;;;13.20;99.90;;;;;;5055075;28;20029;-69
2022/04/15 10:45:54;;;;;;;10.23;5.22;;;13.20;99.90;;;;;;5054226;28;20147;-68
2022/04/15 10:48:34;;;;;;;7.57;4.72;;;13.10;99.90;;;;;;5051608;28;20075;-68
2022/04/15 10:51:20;;;;;;;7.10;4.65;;;12.90;99.90;;;;;;5059547;28;20379;-69
2022/04/15 10:53:46;;;;;;;7.45;4.63;;;12.80;99.90;;;;;;5058700;28;20041;-69
2022/04/15 10:56:14;;;;;;;8.15;5.25;;;12.60;99.90;;;;;;5053822;28;20066;-68
2022/04/15 11:01:51;;;;;;;5.70;3.90;;;12.50;99.90;;;;;;5054014;28;20472;-68
2022/04/15 11:04:25;;;;;;;7.35;4.43;;;12.60;99.90;;;;;;5053780;28;20423;-68
2022/04/15 11:06:53;;;;;;;5.50;4.40;;;12.70;99.90;;;;;;5054975;28;20080;-68
2022/04/15 11:09:26;;;;;;;8.18;4.70;;;12.90;99.90;;;;;;5053615;28;20055;-68
2022/04/15 11:11:53;;;;;;;8.05;4.50;;;12.90;99.90;;;;;;5054810;28;20037;-69
2022/04/15 11:14:33;;;;;;;9.57;4.63;;;12.90;99.90;;;;;;5068616;28;20424;-69
2022/04/15 11:16:59;;;;;;;;;;;12.90;99.90;;;;;;5055331;28;20036;-69
2022/04/15 11:19:26;;;;;;;8.77;6.03;;;12.80;99.90;;;;;;5073776;28;19981;-69
2022/04/15 11:21:54;;;;;;;7.30;4.22;;;12.80;99.90;;;;;;5073144;28;20040;-69
2022/04/15 11:24:30;;;;;;;10.68;5.15;;;12.80;99.90;;;;;;5073490;28;20052;-69
2022/04/15 11:27:05;;;;;;;6.88;5.15;;;12.80;99.90;;;;;;5074586;28;20100;-69
2022/04/15 11:29:33;;;;;;;6.95;4.95;;;12.80;99.90;;;;;;5072094;28;20837;-68
2022/04/15 11:32:03;;;;;;;6.20;4.90;;;12.80;99.90;;;;;;5073161;28;20374;-68
2022/04/15 11:34:29;;;;;;;9.02;5.43;;;12.80;99.90;;;;;;5072990;28;20068;-68
2022/04/15 11:37:01;;;;;;;10.43;5.28;;;12.80;99.90;;;;;;5073055;28;20076;-68
2022/04/15 11:39:28;;;;;;;7.18;5.18;;;12.70;99.90;;;;;;5074297;28;20127;-68
2022/04/15 11:41:57;;;;;;;9.10;5.15;;;12.70;99.90;;;;;;5072775;28;20048;-68
2022/04/15 11:44:31;;;;;;;10.65;5.57;;;12.80;99.90;;;;;;5055592;28;20044;-68
2022/04/15 11:47:16;;;;;;;8.73;5.40;;;12.80;99.90;;;;;;5049385;28;20048;-69
2022/04/15 11:49:43;;;;;;;6.93;5.13;;;12.80;99.90;;;;;;5052433;28;20053;-68
2022/04/15 11:52:10;;;;;;;12.43;5.82;;;12.70;99.90;;;;;;5056330;28;20426;-69
2022/04/15 11:54:40;;;;;;;9.75;5.70;;;12.70;99.90;;;;;;5069793;28;20130;-71
2022/04/15 11:57:07;;;;;;;9.55;5.82;;;12.80;99.90;;;;;;5072682;28;20056;-68
2022/04/15 11:59:55;;;;;;;7.75;5.25;;;12.80;99.90;;;;;;5073674;28;20032;-68
2022/04/15 12:02:24;;;;;;;8.32;5.43;;;12.80;99.90;;;;;;5072269;28;20123;-68
2022/04/15 12:04:52;;;;;;;10.38;5.70;;;12.90;99.90;;;;;;5072126;28;20043;-69
2022/04/15 12:07:19;;;;;;;10.05;6.00;;;12.90;99.90;;;;;;5072568;28;20101;-69
2022/04/15 12:09:46;;;;;;;7.60;5.47;;;12.90;99.90;;;;;;5071931;28;20072;-68
2022/04/15 12:12:11;;;;;;;7.78;5.70;;;13.00;99.90;;;;;;5072264;28;20072;-68
2022/04/15 12:14:40;;;;;;;10.85;5.20;;;13.00;99.90;;;;;;5068953;28;20527;-68
2022/04/15 12:17:08;;;;;;;11.65;6.13;;;13.10;99.90;;;;;;5067535;28;20041;-69
2022/04/15 12:19:35;;;;;;;8.75;5.78;;;13.10;99.90;;;;;;5072644;28;20040;-68
2022/04/15 12:22:01;;;;;;;8.00;6.13;;;13.10;99.90;;;;;;5071307;28;20064;-68
2022/04/15 12:24:30;;;;;;;9.95;5.80;;;13.10;99.90;;;;;;5072333;28;20041;-69
2022/04/15 12:27:00;;;;;;;7.87;5.53;;;13.10;99.90;;;;;;5073282;28;20040;-68
2022/04/15 12:32:35;;;;;;;9.10;5.85;;;13.20;99.90;;;;;;5071767;28;20083;-68
2022/04/15 12:35:10;;;;;;;10.77;5.63;;;13.10;99.90;;;;;;5073160;28;20068;-68
2022/04/15 12:37:44;;;;;;;10.55;5.90;;;13.20;99.90;;;;;;5073100;28;20089;-69
2022/04/15 12:40:22;;;;;;;11.48;6.63;;;13.30;99.90;;;;;;5051867;28;20046;-68
2022/04/15 12:42:53;;;;;;;6.80;5.80;;;13.30;99.90;;;;;;5070956;28;20040;-69
2022/04/15 12:45:21;;;;;;;10.35;5.85;;;13.30;99.90;;;;;;5072659;28;20071;-69
2022/04/15 12:48:00;;;;;;;8.90;6.47;;;13.30;99.90;;;;;;5069235;28;20485;-68
2022/04/15 12:50:31;;;;;;;8.75;5.90;;;13.20;99.90;;;;;;5072612;28;20477;-69
2022/04/15 12:52:58;;;;;;;9.50;6.40;;;13.20;99.90;;;;;;5072769;28;20564;-69
2022/04/15 12:55:28;;;;;;;10.65;6.70;;;13.20;99.90;;;;;;5054727;28;20056;-69
2022/04/15 12:57:55;;;;;;;9.45;6.18;;;13.30;99.90;;;;;;5072930;28;20488;-69